Time;durP1;ratioP1;P1;durP2;ratioP2;P2;SDS_P1;SDS_P2;PMS_P1;PMS_P2;Temp;Humidity;BMP_temperature;BMP_pressure;BME280_temperature;BME280_humidity;BME280_pressure;Samples;Min_cycle;Max_cycle;Signal;HPM_P1;HPM_P2
2022/08/29 00:00:32;;;;;;;;;;;15.90;99.90;;;;;;5094957;28;20006;-74
2022/08/29 00:02:58;;;;;;;;;;;15.90;99.90;;;;;;5094074;28;19959;-73
2022/08/29 00:05:26;;;;;;;;;;;15.90;99.90;;;;;;5094579;28;19934;-74
2022/08/29 00:07:52;;;;;;;;;;;15.90;99.90;;;;;;5094261;28;19943;-73
2022/08/29 00:10:18;;;;;;;;;;;15.90;99.90;;;;;;5094742;28;19948;-73
2022/08/29 00:12:43;;;;;;;;;;;15.80;99.90;;;;;;5094227;28;19908;-74
2022/08/29 00:15:10;;;;;;;;;;;15.90;99.90;;;;;;5092940;28;19904;-73
2022/08/29 00:17:36;;;;;;;;;;;15.80;99.90;;;;;;5094298;28;20389;-74
2022/08/29 00:20:03;;;;;;;;;;;15.80;99.90;;;;;;5093824;28;19915;-75
2022/08/29 00:22:28;;;;;;;;;;;15.80;99.90;;;;;;5094658;28;19908;-74
2022/08/29 00:24:54;;;;;;;;;;;15.80;99.90;;;;;;5093923;28;19931;-74
2022/08/29 00:27:19;;;;;;;;;;;15.80;99.90;;;;;;5094391;28;19912;-74
2022/08/29 00:29:45;;;;;;;;;;;15.80;99.90;;;;;;5094175;28;20375;-73
2022/08/29 00:32:11;;;;;;;;;;;15.70;99.90;;;;;;5093486;28;19915;-74
2022/08/29 00:34:36;;;;;;;;;;;15.70;99.90;;;;;;5094397;28;19920;-72
2022/08/29 00:37:02;;;;;;;;;;;15.70;99.90;;;;;;5093011;28;19914;-73
2022/08/29 00:39:27;;;;;;;;;;;15.70;99.90;;;;;;5094640;28;19908;-72
2022/08/29 00:41:53;;;;;;;;;;;15.60;99.90;;;;;;5093756;28;19915;-73
2022/08/29 00:44:19;;;;;;;;;;;15.60;99.90;;;;;;5094316;28;19935;-73
2022/08/29 00:46:46;;;;;;;;;;;15.60;99.90;;;;;;5094602;28;19915;-72
2022/08/29 00:49:21;;;;;;;;;;;15.60;99.90;;;;;;5094013;28;19951;-72
2022/08/29 00:51:47;;;;;;;;;;;15.60;99.90;;;;;;5094249;28;19908;-73
2022/08/29 00:54:13;;;;;;;;;;;15.50;99.90;;;;;;5093637;28;19919;-72
2022/08/29 00:56:39;;;;;;;;;;;15.50;99.90;;;;;;5094714;28;19908;-72
2022/08/29 00:59:09;;;;;;;;;;;15.50;99.90;;;;;;5093830;28;19912;-72
2022/08/29 01:01:34;;;;;;;;;;;15.40;99.90;;;;;;5094309;28;19962;-73
2022/08/29 01:04:00;;;;;;;;;;;15.40;99.90;;;;;;5093438;28;19912;-73
2022/08/29 01:06:26;;;;;;;;;;;15.30;99.90;;;;;;5094081;28;19916;-72
2022/08/29 01:08:52;;;;;;;;;;;15.30;99.90;;;;;;5092994;28;19908;-73
2022/08/29 01:14:02;;;;;;;;;;;15.40;99.90;;;;;;5093509;28;19930;-73
2022/08/29 01:16:28;;;;;;;;;;;15.40;99.90;;;;;;5094046;28;19908;-73
2022/08/29 01:18:55;;;;;;;;;;;15.40;99.90;;;;;;5093304;28;19915;-73
2022/08/29 01:21:24;;;;;;;;;;;15.30;99.90;;;;;;5093771;28;20357;-73
2022/08/29 01:23:58;;;;;;;;;;;15.40;99.90;;;;;;5093843;28;20371;-73
2022/08/29 01:26:27;;;;;;;;;;;15.40;99.90;;;;;;5093864;28;20266;-72
2022/08/29 01:28:53;;;;;;;;;;;15.40;99.90;;;;;;5093466;28;19916;-73
2022/08/29 01:31:21;;;;;;;;;;;15.40;99.90;;;;;;5093345;28;19908;-73
2022/08/29 01:33:48;;;;;;;;;;;15.40;99.90;;;;;;5093420;28;19908;-73
2022/08/29 01:36:23;;;;;;;;;;;15.40;99.90;;;;;;5092173;28;19915;-73
2022/08/29 01:38:49;;;;;;;;;;;15.30;99.90;;;;;;5093542;28;20042;-73
2022/08/29 01:41:15;;;;;;;;;;;15.40;99.90;;;;;;5092717;28;19951;-73
2022/08/29 01:43:46;;;;;;;;;;;15.30;99.90;;;;;;5093276;28;19919;-73
2022/08/29 01:46:13;;;;;;;;;;;15.30;99.90;;;;;;5092725;28;20014;-73
2022/08/29 01:48:39;;;;;;;;;;;15.30;99.90;;;;;;5093227;28;19914;-73
2022/08/29 01:51:05;;;;;;;;;;;15.30;99.90;;;;;;5091479;28;19915;-73
2022/08/29 01:53:31;;;;;;;;;;;15.30;99.90;;;;;;5093235;28;19908;-72
2022/08/29 01:55:56;;;;;;;;;;;15.40;99.90;;;;;;5093146;28;19916;-72
2022/08/29 01:58:22;;;;;;;;;;;15.30;99.90;;;;;;5093300;28;19930;-73
2022/08/29 02:00:48;;;;;;;;;;;15.30;99.90;;;;;;5093156;28;19970;-73
2022/08/29 02:03:13;;;;;;;;;;;15.30;99.90;;;;;;5092333;28;19916;-72
2022/08/29 02:05:39;;;;;;;;;;;15.30;99.90;;;;;;5093235;28;19919;-73
2022/08/29 02:08:05;;;;;;;;;;;15.30;99.90;;;;;;5092379;28;20456;-72
2022/08/29 02:10:30;;;;;;;;;;;15.30;99.90;;;;;;5093202;28;19915;-72
2022/08/29 02:12:57;;;;;;;;;;;15.30;99.90;;;;;;5092779;28;19908;-72
2022/08/29 02:15:22;;;;;;;;;;;15.30;99.90;;;;;;5092530;28;19961;-72
2022/08/29 02:17:48;;;;;;;;;;;15.30;99.90;;;;;;5093148;28;19912;-72
2022/08/29 02:20:14;;;;;;;;;;;15.20;99.90;;;;;;5091507;28;20002;-72
2022/08/29 02:22:39;;;;;;;;;;;15.20;99.90;;;;;;5093053;28;20357;-73
2022/08/29 02:25:40;;;;;;;;;;;15.20;99.90;;;;;;5092303;28;19920;-73
2022/08/29 02:27:51;;;;;;;;;;;15.20;99.90;;;;;;5092601;28;20327;-72
2022/08/29 02:30:18;;;;;;;;;;;15.20;99.90;;;;;;5092321;28;19912;-72
2022/08/29 02:32:44;;;;;;;;;;;15.20;99.90;;;;;;5092658;28;19962;-72
2022/08/29 02:35:09;;;;;;;;;;;15.20;99.90;;;;;;5091842;28;19920;-72
2022/08/29 02:37:35;;;;;;;;;;;15.20;99.90;;;;;;5093131;28;19911;-73
2022/08/29 02:40:00;;;;;;;;;;;15.30;99.90;;;;;;5092042;28;20357;-72
2022/08/29 02:42:26;;;;;;;;;;;15.30;99.90;;;;;;5092980;28;20246;-73
2022/08/29 02:44:51;;;;;;;;;;;15.20;99.90;;;;;;5092326;28;19920;-73
2022/08/29 02:47:17;;;;;;;;;;;15.30;99.90;;;;;;5092243;28;20101;-72
2022/08/29 02:49:42;;;;;;;;;;;15.20;99.90;;;;;;5092829;28;19961;-72
2022/08/29 02:52:09;;;;;;;;;;;15.20;99.90;;;;;;5092028;28;19914;-73
2022/08/29 02:54:34;;;;;;;;;;;15.20;99.90;;;;;;5092681;28;19912;-72
2022/08/29 02:57:00;;;;;;;;;;;15.20;99.90;;;;;;5092271;28;20003;-73
2022/08/29 02:59:26;;;;;;;;;;;15.20;99.90;;;;;;5093256;28;19919;-72
2022/08/29 03:01:52;;;;;;;;;;;15.20;99.90;;;;;;5092666;28;19931;-72
2022/08/29 03:04:18;;;;;;;;;;;15.30;99.90;;;;;;5091961;28;20349;-72
2022/08/29 03:06:43;;;;;;;;;;;15.30;99.90;;;;;;5092816;28;19912;-72
2022/08/29 03:09:09;;;;;;;;;;;15.30;99.90;;;;;;5090784;28;20345;-72
2022/08/29 03:11:35;;;;;;;;;;;15.30;99.90;;;;;;5092820;28;20050;-72
2022/08/29 03:14:00;;;;;;;;;;;15.30;99.90;;;;;;5092315;28;19912;-72
2022/08/29 03:16:26;;;;;;;;;;;15.40;99.90;;;;;;5091957;28;20276;-73
2022/08/29 03:18:52;;;;;;;;;;;15.40;99.90;;;;;;5092306;28;20353;-72
2022/08/29 03:21:19;;;;;;;;;;;15.40;99.90;;;;;;5091732;28;19908;-72
2022/08/29 03:23:45;;;;;;;;;;;15.40;99.90;;;;;;5092390;28;19966;-72
2022/08/29 03:26:10;;;;;;;;;;;15.30;99.90;;;;;;5091573;28;19951;-72
2022/08/29 03:28:36;;;;;;;;;;;15.30;99.90;;;;;;5092191;28;19908;-73
2022/08/29 03:31:01;;;;;;;;;;;15.30;99.90;;;;;;5092318;28;19999;-72
2022/08/29 03:33:27;;;;;;;;;;;15.40;99.90;;;;;;5095624;28;20280;-73
2022/08/29 03:35:53;;;;;;;;;;;15.30;99.90;;;;;;5095987;28;20307;-73
2022/08/29 03:38:18;;;;;;;;;;;15.30;99.90;;;;;;5095202;28;19994;-72
2022/08/29 03:40:44;;;;;;;;;;;15.30;99.90;;;;;;5096000;28;19915;-73
2022/08/29 03:43:09;;;;;;;;;;;15.30;99.90;;;;;;5093992;28;19965;-73
2022/08/29 03:45:35;;;;;;;;;;;15.30;99.90;;;;;;5094375;28;20396;-73
2022/08/29 03:48:01;;;;;;;;;;;15.20;99.90;;;;;;5095819;28;19916;-73
2022/08/29 03:50:26;;;;;;;;;;;15.20;99.90;;;;;;5094867;28;19912;-74
2022/08/29 03:52:52;;;;;;;;;;;15.20;99.90;;;;;;5095993;28;20356;-73
2022/08/29 03:55:19;;;;;;;;;;;15.20;99.90;;;;;;5094927;28;19966;-73
2022/08/29 03:57:44;;;;;;;;;;;15.20;99.90;;;;;;5095707;28;20006;-74
2022/08/29 04:00:14;;;;;;;;;;;15.20;99.90;;;;;;5094971;28;20001;-74
2022/08/29 04:02:40;;;;;;;;;;;15.20;99.90;;;;;;5095500;28;19908;-74
2022/08/29 04:05:07;;;;;;;;;;;15.20;99.90;;;;;;5094894;28;19916;-73
2022/08/29 04:07:36;;;;;;;;;;;15.20;99.90;;;;;;5095693;28;19958;-72
2022/08/29 04:10:03;;;;;;;;;;;15.20;99.90;;;;;;5095109;28;20003;-73
2022/08/29 04:12:29;;;;;;;;;;;15.20;99.90;;;;;;5094652;28;19908;-74
2022/08/29 04:14:55;;;;;;;;;;;15.10;99.90;;;;;;5095029;28;20426;-73
2022/08/29 04:17:20;;;;;;;;;;;15.10;99.90;;;;;;5094592;28;19947;-73
2022/08/29 04:19:46;;;;;;;;;;;15.10;99.90;;;;;;5095478;28;20275;-73
2022/08/29 04:22:12;;;;;;;;;;;15.10;99.90;;;;;;5094606;28;19908;-74
2022/08/29 04:24:38;;;;;;;;;;;15.10;99.90;;;;;;5095010;28;19912;-74
2022/08/29 04:27:03;;;;;;;;;;;15.10;99.90;;;;;;5095081;28;19912;-72
2022/08/29 04:29:29;;;;;;;;;;;15.10;99.90;;;;;;5094170;28;19915;-73
2022/08/29 04:31:54;;;;;;;;;;;15.10;99.90;;;;;;5095298;28;20322;-72
2022/08/29 04:34:20;;;;;;;;;;;15.10;99.90;;;;;;5094126;28;19920;-72
2022/08/29 04:36:46;;;;;;;;;;;15.10;99.90;;;;;;5093653;28;20003;-73
2022/08/29 04:39:11;;;;;;;;;;;15.10;99.90;;;;;;5094112;28;20356;-73
2022/08/29 04:41:38;;;;;;;;;;;15.10;99.90;;;;;;5094495;28;20290;-72
2022/08/29 04:44:04;;;;;;;;;;;15.10;99.90;;;;;;5093329;28;19923;-72
2022/08/29 04:46:30;;;;;;;;;;;15.10;99.90;;;;;;5093916;28;19955;-71
2022/08/29 04:48:56;;;;;;;;;;;15.10;99.90;;;;;;5094554;28;19911;-73
2022/08/29 04:51:22;;;;;;;;;;;15.10;99.90;;;;;;5093979;28;20425;-72
2022/08/29 04:53:48;;;;;;;;;;;15.10;99.90;;;;;;5094595;28;19915;-72
2022/08/29 04:56:14;;;;;;;;;;;15.10;99.90;;;;;;5094181;28;19908;-72
2022/08/29 04:58:40;;;;;;;;;;;15.10;99.90;;;;;;5094110;28;19916;-72
2022/08/29 05:01:06;;;;;;;;;;;15.10;99.90;;;;;;5094240;28;19912;-72
2022/08/29 05:03:32;;;;;;;;;;;15.10;99.90;;;;;;5093718;28;19912;-73
2022/08/29 05:06:00;;;;;;;;;;;15.10;99.90;;;;;;5093845;28;19912;-73
2022/08/29 05:08:27;;;;;;;;;;;15.10;99.90;;;;;;5093299;28;19912;-73
2022/08/29 05:10:52;;;;;;;;;;;15.10;99.90;;;;;;5094166;28;19908;-73
2022/08/29 05:13:18;;;;;;;;;;;15.20;99.90;;;;;;5093586;28;19991;-73
2022/08/29 05:15:44;;;;;;;;;;;15.10;99.90;;;;;;5093846;28;19951;-73
2022/08/29 05:18:10;;;;;;;;;;;15.20;99.90;;;;;;5092360;28;19915;-72
2022/08/29 05:20:38;;;;;;;;;;;15.20;99.90;;;;;;5093965;28;19919;-72
2022/08/29 05:23:03;;;;;;;;;;;15.20;99.90;;;;;;5093885;28;20007;-73
2022/08/29 05:25:29;;;;;;;;;;;15.30;99.90;;;;;;5093242;28;19934;-72
2022/08/29 05:27:54;;;;;;;;;;;15.30;99.90;;;;;;5094072;28;19908;-72
2022/08/29 05:30:20;;;;;;;;;;;15.30;99.90;;;;;;5092902;28;20408;-72
2022/08/29 05:32:46;;;;;;;;;;;15.40;99.90;;;;;;5093379;28;19934;-72
2022/08/29 05:35:11;;;;;;;;;;;15.30;99.90;;;;;;5093011;28;19956;-72
2022/08/29 05:37:37;;;;;;;;;;;15.40;99.90;;;;;;5093529;28;19915;-72
2022/08/29 05:40:03;;;;;;;;;;;15.40;99.90;;;;;;5093436;28;19999;-72
2022/08/29 05:42:29;;;;;;;;;;;15.40;99.90;;;;;;5092602;28;20130;-72
2022/08/29 05:44:55;;;;;;;;;;;15.50;99.90;;;;;;5092042;28;20341;-73
2022/08/29 05:47:21;;;;;;;;;;;15.50;99.90;;;;;;5092784;28;19912;-73
2022/08/29 05:49:47;;;;;;;;;;;15.50;99.90;;;;;;5093570;28;19908;-72
2022/08/29 05:52:14;;;;;;;;;;;15.50;99.90;;;;;;5092849;28;19908;-74
2022/08/29 05:54:40;;;;;;;;;;;15.60;99.90;;;;;;5093369;28;19912;-73
2022/08/29 05:57:07;;;;;;;;;;;15.60;99.90;;;;;;5093284;28;19965;-73
2022/08/29 05:59:34;;;;;;;;;;;15.60;99.90;;;;;;5092690;28;19904;-73
2022/08/29 06:02:00;;;;;;;;;;;15.70;99.90;;;;;;5093166;28;19908;-73
2022/08/29 06:04:26;;;;;;;;;;;15.70;99.90;;;;;;5090928;28;19916;-71
2022/08/29 06:06:51;;;;;;;;;;;15.80;99.90;;;;;;5091831;28;19912;-73
2022/08/29 06:09:17;;;;;;;;;;;15.80;99.90;;;;;;5092247;28;19947;-73
2022/08/29 06:11:45;;;;;;;;;;;15.90;99.90;;;;;;5091719;28;19908;-73
2022/08/29 06:14:12;;;;;;;;;;;15.90;99.90;;;;;;5092654;28;19954;-73
2022/08/29 06:16:38;;;;;;;;;;;16.00;99.90;;;;;;5092313;28;19908;-73
2022/08/29 06:19:04;;;;;;;;;;;16.10;99.90;;;;;;5091611;28;19915;-73
2022/08/29 06:21:30;;;;;;;;;;;16.10;99.90;;;;;;5092399;28;19908;-73
2022/08/29 06:23:55;;;;;;;;;;;16.20;99.90;;;;;;5092571;28;19967;-73
2022/08/29 06:26:21;;;;;;;;;;;16.20;99.90;;;;;;5092420;28;19955;-73
2022/08/29 06:28:46;;;;;;;;;;;16.30;99.90;;;;;;5092936;28;19908;-73
2022/08/29 06:31:20;;;;;;;;;;;16.30;99.90;;;;;;5091472;28;19908;-73
2022/08/29 06:33:46;;;;;;;;;;;16.40;99.90;;;;;;5092788;28;20316;-73
2022/08/29 06:36:12;;;;;;;;;;;16.50;99.90;;;;;;5093020;28;20012;-73
2022/08/29 06:38:38;;;;;;;;;;;16.60;99.90;;;;;;5092199;28;19908;-73
2022/08/29 06:41:05;;;;;;;;;;;16.70;99.90;;;;;;5092949;28;19963;-73
2022/08/29 06:43:30;;;;;;;;;;;16.90;99.90;;;;;;5092212;28;19944;-74
2022/08/29 06:45:56;;;;;;;;;;;17.00;99.90;;;;;;5092547;28;20005;-73
2022/08/29 06:48:22;;;;;;;;;;;17.00;99.90;;;;;;5092177;28;19908;-74
2022/08/29 06:50:47;;;;;;;;;;;17.10;99.90;;;;;;5092600;28;19952;-73
2022/08/29 06:53:13;;;;;;;;;;;17.20;99.90;;;;;;5092658;28;20440;-74
2022/08/29 06:55:39;;;;;;;;;;;17.20;99.90;;;;;;5092055;28;19944;-73
2022/08/29 06:58:04;;;;;;;;;;;17.40;99.90;;;;;;5092148;28;19995;-73
2022/08/29 07:00:30;;;;;;;;;;;17.40;99.90;;;;;;5091881;28;19998;-74
2022/08/29 07:02:55;;;;;;;;;;;17.50;99.90;;;;;;5092424;28;19919;-74
2022/08/29 07:05:22;;;;;;;;;;;17.70;99.90;;;;;;5091694;28;19982;-73
2022/08/29 07:07:47;;;;;;;;;;;17.90;99.90;;;;;;5095071;28;20272;-73
2022/08/29 07:10:13;;;;;;;;;;;18.00;99.90;;;;;;5096498;28;19916;-73
2022/08/29 07:12:39;;;;;;;;;;;18.10;99.90;;;;;;5095899;28;20414;-73
2022/08/29 07:15:05;;;;;;;;;;;18.20;99.90;;;;;;5096021;28;19908;-73
2022/08/29 07:17:30;;;;;;;;;;;18.30;99.90;;;;;;5095669;28;19908;-73
2022/08/29 07:19:56;;;;;;;;;;;18.50;99.90;;;;;;5096214;28;19916;-73
2022/08/29 07:22:22;;;;;;;;;;;18.60;99.90;;;;;;5095623;28;19915;-73
2022/08/29 07:24:47;;;;;;;;;;;18.70;99.90;;;;;;5095944;28;19919;-73
2022/08/29 07:27:13;;;;;;;;;;;18.70;99.90;;;;;;5095959;28;19912;-72
2022/08/29 07:29:39;;;;;;;;;;;18.80;99.90;;;;;;5095403;28;19904;-73
2022/08/29 07:32:05;;;;;;;;;;;18.80;99.90;;;;;;5096023;28;19908;-73
2022/08/29 07:34:30;;;;;;;;;;;18.90;99.90;;;;;;5094995;28;20223;-73
2022/08/29 07:36:56;;;;;;;;;;;19.00;99.90;;;;;;5096052;28;20326;-73
2022/08/29 07:39:21;;;;;;;;;;;19.00;99.90;;;;;;5095336;28;19977;-73
2022/08/29 07:41:47;;;;;;;;;;;19.10;99.90;;;;;;5095440;28;19908;-73
2022/08/29 07:44:13;;;;;;;;;;;19.10;99.90;;;;;;5095712;28;19912;-73
2022/08/29 07:46:39;;;;;;;;;;;19.00;99.90;;;;;;5094598;28;19912;-73
2022/08/29 07:49:05;;;;;;;;;;;19.10;99.90;;;;;;5095407;28;19915;-73
2022/08/29 07:51:31;;;;;;;;;;;19.20;99.90;;;;;;5094889;28;20002;-73
2022/08/29 07:53:57;;;;;;;;;;;19.30;99.90;;;;;;5095475;28;19947;-72
2022/08/29 07:56:24;;;;;;;;;;;19.40;99.90;;;;;;5095129;28;19953;-73
2022/08/29 07:58:50;;;;;;;;;;;19.30;99.90;;;;;;5094195;28;19909;-72
2022/08/29 08:01:16;;;;;;;;;;;19.30;99.90;;;;;;5095399;28;20368;-72
2022/08/29 08:03:41;;;;;;;;;;;19.30;99.90;;;;;;5094789;28;19912;-73
2022/08/29 08:06:07;;;;;;;;;;;19.40;99.90;;;;;;5095388;28;20331;-73
2022/08/29 08:08:33;;;;;;;;;;;19.50;99.90;;;;;;5095227;28;20003;-73
2022/08/29 08:10:59;;;;;;;;;;;19.40;99.90;;;;;;5095426;28;19958;-72
2022/08/29 08:13:26;;;;;;;;;;;19.40;99.90;;;;;;5094555;28;19909;-72
2022/08/29 08:15:54;;;;;;;;;;;19.50;99.90;;;;;;5095195;28;19957;-73
2022/08/29 08:18:20;;;;;;;;;;;19.50;99.90;;;;;;5094973;28;20333;-73
2022/08/29 08:20:47;;;;;;;;;;;19.60;99.90;;;;;;5094271;28;19912;-73
2022/08/29 08:23:13;;;;;;;;;;;19.60;99.90;;;;;;5094832;28;20277;-72
2022/08/29 08:25:39;;;;;;;;;;;19.70;99.90;;;;;;5094444;28;19912;-73
2022/08/29 08:28:04;;;;;;;;;;;19.80;99.90;;;;;;5095052;28;19908;-73
2022/08/29 08:30:30;;;;;;;;;;;19.90;99.90;;;;;;5094464;28;20382;-72
2022/08/29 08:32:56;;;;;;;;;;;19.90;99.90;;;;;;5095108;28;19923;-73
2022/08/29 08:35:21;;;;;;;;;;;19.90;99.90;;;;;;5094091;28;19921;-72
2022/08/29 08:37:48;;;;;;;;;;;19.80;99.90;;;;;;5093980;28;20269;-72
2022/08/29 08:40:20;;;;;;;;;;;19.90;99.90;;;;;;5093496;28;19918;-72
2022/08/29 08:42:46;;;;;;;;;;;19.80;99.90;;;;;;5093705;28;19913;-73
2022/08/29 08:45:11;;;;;;;;;;;19.80;99.90;;;;;;5094495;28;19913;-71
2022/08/29 08:47:50;;;;;;;;;;;19.70;99.90;;;;;;5094192;28;19912;-72
2022/08/29 08:50:31;;;;;;;;;;;19.80;99.90;;;;;;5094241;28;19941;-73
2022/08/29 08:52:58;;;;;;;;;;;19.90;99.90;;;;;;5094473;28;20417;-73
2022/08/29 08:55:42;;;;;;;;;;;20.00;99.90;;;;;;5094098;28;20281;-73
2022/08/29 08:58:08;;;;;;;;;;;20.00;99.90;;;;;;5094120;28;19962;-73
2022/08/29 09:00:40;;;;;;;;;;;20.10;99.90;;;;;;5093786;28;19912;-74
2022/08/29 09:03:18;;;;;;;;;;;20.20;99.90;;;;;;5092953;28;19919;-73
2022/08/29 09:06:00;;;;;;;;;;;20.20;99.90;;;;;;5093410;28;19920;-74
2022/08/29 09:08:35;;;;;;;;;;;20.20;99.90;;;;;;5093595;28;19944;-73
2022/08/29 09:11:02;;;;;;;;;;;20.30;99.90;;;;;;5094159;28;19908;-73
2022/08/29 09:13:39;;;;;;;;;;;20.30;99.90;;;;;;5093246;28;20288;-73
2022/08/29 09:16:10;;;;;;;;;;;20.20;99.90;;;;;;5094096;28;19973;-73
2022/08/29 09:18:37;;;;;;;;;;;20.10;99.90;;;;;;5093250;28;20379;-73
2022/08/29 09:21:04;;;;;;;;;;;20.20;99.90;;;;;;5092573;28;19951;-74
2022/08/29 09:23:33;;;;;;;;;;;20.20;99.90;;;;;;5092992;28;19912;-73
2022/08/29 09:25:58;;;;;;;;;;;20.10;99.90;;;;;;5093860;28;20022;-72
2022/08/29 09:28:25;;;;;;;;;;;20.10;99.90;;;;;;5093796;28;20364;-73
2022/08/29 09:31:19;;;;;;;;;;;20.10;99.90;;;;;;5093122;28;19908;-73
2022/08/29 09:33:48;;;;;;;;;;;20.10;99.90;;;;;;5087608;28;19913;-73
2022/08/29 09:36:34;;;;;;;;;;;20.20;99.90;;;;;;5093254;28;19920;-74
2022/08/29 09:39:10;;;;;;;;;;;20.30;99.90;;;;;;5089064;28;19916;-74
2022/08/29 09:41:36;;;;;;;;;;;20.30;99.90;;;;;;5092799;28;20361;-74
2022/08/29 09:44:01;;;;;;;;;;;20.20;99.90;;;;;;5092407;28;19958;-74
2022/08/29 09:46:27;;;;;;;;;;;20.20;99.90;;;;;;5094142;28;20343;-74
2022/08/29 09:48:59;;;;;;;;;;;20.10;99.90;;;;;;5091680;28;19912;-72
2022/08/29 09:51:30;;;;;;;;;;;19.90;99.90;;;;;;5092925;28;19908;-73
2022/08/29 09:54:14;;;;;;;;;;;19.80;99.90;;;;;;5092960;28;19912;-73
2022/08/29 09:56:48;;;;;;;;;;;19.70;99.90;;;;;;5092622;28;19908;-73
2022/08/29 09:59:21;;;;;;;;;;;19.70;99.90;;;;;;5093232;28;19908;-73
2022/08/29 10:01:48;;;;;;;;;;;19.60;99.90;;;;;;5092682;28;20049;-72
2022/08/29 10:04:33;;;;;;;;;;;19.60;99.90;;;;;;5092878;28;20383;-73
2022/08/29 10:07:06;;;;;;;;;;;19.70;99.90;;;;;;5093015;28;19912;-74
2022/08/29 10:09:32;;;;;;;;;;;19.90;99.90;;;;;;5092752;28;19908;-72
2022/08/29 10:12:02;;;;;;;;;;;20.00;99.90;;;;;;5093249;28;19915;-74
2022/08/29 10:14:39;;;;;;;;;;;20.20;99.90;;;;;;5093206;28;19961;-74
2022/08/29 10:20:09;;;;;;;;;;;20.30;99.90;;;;;;5093356;28;20422;-73
2022/08/29 10:22:37;;;;;;;;;;;20.40;99.90;;;;;;5092321;28;19931;-73
2022/08/29 10:25:03;;;;;;;;;;;20.40;99.90;;;;;;5092885;28;20003;-73
2022/08/29 10:27:42;;;;;;;;;;;20.40;99.90;;;;;;5091564;28;20325;-74
2022/08/29 10:30:10;;;;;;;;;;;20.30;99.90;;;;;;5093239;28;19998;-74
2022/08/29 10:32:41;;;;;;;;;;;20.40;99.90;;;;;;5092294;28;19951;-73
2022/08/29 10:35:14;;;;;;;;;;;20.30;99.90;;;;;;5092783;28;20307;-74
2022/08/29 10:37:40;;;;;;;;;;;20.30;99.90;;;;;;5092153;28;20361;-73
2022/08/29 10:40:22;;;;;;;;;;;20.30;99.90;;;;;;5093113;28;19919;-73
2022/08/29 10:42:50;;;;;;;;;;;20.40;99.90;;;;;;5095318;28;19908;-73
2022/08/29 10:45:16;;;;;;;;;;;20.50;99.90;;;;;;5096605;28;19965;-73
2022/08/29 10:47:57;;;;;;;;;;;20.50;99.90;;;;;;5096339;28;19999;-73
2022/08/29 10:50:37;;;;;;;;;;;20.50;99.90;;;;;;5096566;28;19961;-72
2022/08/29 10:53:13;;;;;;;;;;;20.50;99.90;;;;;;5096624;28;19995;-73
2022/08/29 10:55:52;;;;;;;;;;;20.50;99.90;;;;;;5096211;28;19953;-73
2022/08/29 10:58:50;;;;;;;;;;;20.50;99.90;;;;;;5096829;28;19908;-73
2022/08/29 11:01:15;;;;;;;;;;;20.50;99.90;;;;;;5083966;28;20003;-73
2022/08/29 11:04:00;;;;;;;;;;;20.50;99.90;;;;;;5094732;28;20015;-73
2022/08/29 11:06:43;;;;;;;;;;;20.50;99.90;;;;;;5096604;28;19916;-73
2022/08/29 11:09:17;;;;;;;;;;;20.50;99.90;;;;;;5096579;28;19914;-74
2022/08/29 11:12:12;;;;;;;;;;;20.60;99.90;;;;;;5095563;28;19915;-73
2022/08/29 11:14:58;;;;;;;;;;;20.60;99.90;;;;;;5075564;28;19909;-73
2022/08/29 11:17:28;;;;;;;;;;;20.70;99.90;;;;;;5094993;28;19909;-73
2022/08/29 11:19:54;;;;;;;;;;;20.80;99.90;;;;;;5095600;28;20058;-74
2022/08/29 11:22:19;;;;;;;;;;;20.80;99.90;;;;;;5096076;28;20011;-73
2022/08/29 11:24:55;;;;;;;;;;;20.80;99.90;;;;;;5095714;28;20411;-73
2022/08/29 11:27:31;;;;;;;;;;;20.70;99.90;;;;;;5096110;28;19974;-74
2022/08/29 11:30:01;;;;;;;;;;;20.80;99.90;;;;;;5095140;28;19912;-73
2022/08/29 11:32:42;;;;;;;;;;;20.90;99.90;;;;;;5096085;28;19908;-73
2022/08/29 11:35:34;;;;;;;;;;;20.90;99.90;;;;;;5095354;28;19927;-73
2022/08/29 11:38:09;;;;;;;;;;;20.90;99.90;;;;;;5093039;28;19908;-73
2022/08/29 11:40:37;;;;;;;;;;;21.00;99.90;;;;;;5094321;28;20280;-72
2022/08/29 11:43:04;;;;;;;;;;;21.10;99.90;;;;;;5094568;28;19909;-73
2022/08/29 11:45:39;;;;;;;;;;;21.10;99.90;;;;;;5094492;28;19916;-73
2022/08/29 11:48:17;;;;;;;;;;;21.20;99.90;;;;;;5094573;28;19957;-72
2022/08/29 11:50:43;;;;;;;;;;;21.20;99.90;;;;;;5093786;28;19908;-75
2022/08/29 11:53:36;;;;;;;;;;;21.10;99.90;;;;;;5093685;28;19908;-75
2022/08/29 11:56:10;;;;;;;;;;;21.10;99.90;;;;;;5094341;28;19914;-74
2022/08/29 11:58:38;;;;;;;;;;;21.10;99.90;;;;;;5093785;28;20422;-73
2022/08/29 12:01:05;;;;;;;;;;;21.10;99.90;;;;;;5094184;28;19908;-72
2022/08/29 12:03:33;;;;;;;;;;;21.10;99.90;;;;;;5094353;28;19955;-73
2022/08/29 12:06:11;;;;;;;;;;;21.00;99.90;;;;;;5093709;28;19912;-74
2022/08/29 12:08:51;;;;;;;;;;;20.90;99.90;;;;;;5093684;28;19915;-74
2022/08/29 12:11:17;;;;;;;;;;;20.90;99.90;;;;;;5094148;28;20277;-74
2022/08/29 12:13:43;;;;;;;;;;;21.00;99.90;;;;;;5093859;28;19908;-74
2022/08/29 12:16:10;;;;;;;;;;;21.00;99.90;;;;;;5093800;28;19914;-75
2022/08/29 12:18:46;;;;;;;;;;;21.00;99.90;;;;;;5094091;28;19908;-74
2022/08/29 12:21:30;;;;;;;;;;;21.10;99.90;;;;;;5094021;28;19912;-74
2022/08/29 12:23:56;;;;;;;;;;;21.20;99.90;;;;;;5092963;28;20074;-74
2022/08/29 12:26:41;;;;;;;;;;;21.20;99.90;;;;;;5093902;28;20341;-74
2022/08/29 12:29:15;;;;;;;;;;;21.10;99.90;;;;;;5094177;28;20280;-74
2022/08/29 12:31:59;;;;;;;;;;;21.10;99.90;;;;;;5093435;28;19994;-75
2022/08/29 12:34:40;;;;;;;;;;;21.10;99.90;;;;;;5018039;28;2138926;-74
2022/08/29 12:37:12;;;;;;;;;;;20.90;99.90;;;;;;5094857;28;19912;-74
2022/08/29 12:39:53;;;;;;;;;;;20.80;99.90;;;;;;5094633;28;19965;-74
2022/08/29 12:42:37;;;;;;;;;;;20.70;99.90;;;;;;5094798;28;19915;-74
2022/08/29 12:45:04;;;;;;;;;;;20.50;99.90;;;;;;5094132;28;20017;-74
2022/08/29 12:47:34;;;;;;;;;;;20.40;99.90;;;;;;5094607;28;19912;-74
2022/08/29 12:50:02;;;;;;;;;;;20.30;99.90;;;;;;5093944;28;19995;-74
2022/08/29 12:52:29;;;;;;;;;;;20.30;99.90;;;;;;5094407;28;20003;-74
2022/08/29 12:54:56;;;;;;;;;;;20.40;99.90;;;;;;5093829;28;19908;-74
2022/08/29 12:57:30;;;;;;;;;;;20.60;99.90;;;;;;5093314;28;19909;-73
2022/08/29 12:59:56;;;;;;;;;;;20.70;99.90;;;;;;5093796;28;19919;-74
2022/08/29 13:02:23;;;;;;;;;;;20.80;99.90;;;;;;5094367;28;19908;-74
2022/08/29 13:04:49;;;;;;;;;;;21.00;99.90;;;;;;5092837;28;19935;-74
2022/08/29 13:07:16;;;;;;;;;;;21.10;99.90;;;;;;5094246;28;20361;-74
2022/08/29 13:09:50;;;;;;;;;;;21.10;99.90;;;;;;5092472;28;19912;-74
2022/08/29 13:12:22;;;;;;;;;;;21.10;99.90;;;;;;5094134;28;20006;-74
2022/08/29 13:14:54;;;;;;;;;;;20.90;99.90;;;;;;5093201;28;19915;-73
2022/08/29 13:17:22;;;;;;;;;;;20.90;99.90;;;;;;5092309;28;20345;-73
2022/08/29 13:20:06;;;;;;;;;;;20.80;99.90;;;;;;5093230;28;19974;-73
2022/08/29 13:22:31;;;;;;;;;;;20.90;99.90;;;;;;5094049;28;19912;-73
2022/08/29 13:25:01;;;;;;;;;;;21.00;99.90;;;;;;5092869;28;19919;-74
2022/08/29 13:27:27;;;;;;;;;;;21.10;99.90;;;;;;5092574;28;19916;-74
2022/08/29 13:29:58;;;;;;;;;;;21.00;99.90;;;;;;5093259;28;19908;-74
2022/08/29 13:32:25;;;;;;;;;;;20.80;99.90;;;;;;5093907;28;19947;-74
2022/08/29 13:34:57;;;;;;;;;;;20.80;99.90;;;;;;5092870;28;19920;-74
2022/08/29 13:37:27;;;;;;;;;;;20.80;99.90;;;;;;5093644;28;20368;-74
2022/08/29 13:39:53;;;;;;;;;;;20.70;99.90;;;;;;5093157;28;19908;-72
2022/08/29 13:42:20;;;;;;;;;;;20.70;99.90;;;;;;5093649;28;19908;-73
2022/08/29 13:44:45;;;;;;;;;;;20.60;99.90;;;;;;5093011;28;20016;-73
2022/08/29 13:47:12;;;;;;;;;;;20.40;99.90;;;;;;5093221;28;19912;-73
2022/08/29 13:49:39;;;;;;;;;;;20.40;99.90;;;;;;5093744;28;19996;-74
2022/08/29 13:52:05;;;;;;;;;;;20.50;99.90;;;;;;5091568;28;20284;-73
2022/08/29 13:54:32;;;;;;;;;;;20.50;99.90;;;;;;5093364;28;19913;-73
2022/08/29 13:56:58;;;;;;;;;;;20.50;99.90;;;;;;5092469;28;19916;-73
2022/08/29 13:59:25;;;;;;;;;;;20.30;99.90;;;;;;5093281;28;19908;-73
2022/08/29 14:01:51;;;;;;;;;;;20.30;99.90;;;;;;5092606;28;19961;-72
2022/08/29 14:04:17;;;;;;;;;;;20.40;99.90;;;;;;5093124;28;19916;-73
2022/08/29 14:06:43;;;;;;;;;;;20.50;99.90;;;;;;5093022;28;20285;-73
2022/08/29 14:09:08;;;;;;;;;;;20.50;99.90;;;;;;5093047;28;19908;-73
2022/08/29 14:11:34;;;;;;;;;;;20.50;99.90;;;;;;5092847;28;19999;-73
2022/08/29 14:13:59;;;;;;;;;;;20.40;99.90;;;;;;5092195;28;20011;-74
2022/08/29 14:16:25;;;;;;;;;;;20.40;99.90;;;;;;5092841;28;20262;-74
2022/08/29 14:18:52;;;;;;;;;;;20.40;99.90;;;;;;5092226;28;19922;-74
2022/08/29 14:21:19;;;;;;;;;;;20.30;99.90;;;;;;5092957;28;19909;-74
2022/08/29 14:23:45;;;;;;;;;;;20.40;99.90;;;;;;5092691;28;19965;-74
2022/08/29 14:26:10;;;;;;;;;;;20.40;99.90;;;;;;5092550;28;19913;-74
2022/08/29 14:28:36;;;;;;;;;;;20.40;99.90;;;;;;5092929;28;19916;-74